Time;durP1;ratioP1;P1;durP2;ratioP2;P2;SDS_P1;SDS_P2;PMS_P1;PMS_P2;Temp;Humidity;BMP_temperature;BMP_pressure;BME280_temperature;BME280_humidity;BME280_pressure;Samples;Min_cycle;Max_cycle;Signal;HPM_P1;HPM_P2
2022/07/12 00:00:14;;;;;;;3.60;1.75;;;;;;;16.65;72.47;101141.81;5069582;28;20048;-67
2022/07/12 00:02:41;;;;;;;;;;;;;;;16.61;72.61;101138.88;5075096;28;20481;-67
2022/07/12 00:05:09;;;;;;;2.88;1.30;;;;;;;16.63;72.13;101130.06;5074548;28;20386;-66
2022/07/12 00:07:36;;;;;;;1.90;1.55;;;;;;;16.63;72.35;101142.16;5067349;28;20056;-66
2022/07/12 00:10:05;;;;;;;2.10;1.40;;;;;;;16.66;72.31;101131.41;5072603;28;20060;-66
2022/07/12 00:12:32;;;;;;;3.72;1.58;;;;;;;16.69;72.12;101130.69;5073822;28;20053;-66
2022/07/12 00:14:59;;;;;;;1.95;1.40;;;;;;;16.67;72.15;101135.84;5072156;28;20049;-65
2022/07/12 00:17:28;;;;;;;2.90;1.67;;;;;;;16.70;72.21;101132.38;5053772;28;20072;-67
2022/07/12 00:19:55;;;;;;;2.30;1.70;;;;;;;16.72;72.01;101130.84;5064234;28;20390;-66
2022/07/12 00:22:23;;;;;;;1.90;1.40;;;;;;;16.72;72.19;101121.59;5072065;28;20465;-67
2022/07/12 00:24:50;;;;;;;2.05;1.58;;;;;;;16.77;72.03;101125.03;5071978;28;20061;-66
2022/07/12 00:27:18;;;;;;;2.42;1.40;;;;;;;16.80;71.83;101130.00;5073633;28;20056;-66
2022/07/12 00:29:45;;;;;;;1.95;1.42;;;;;;;16.83;71.83;101125.69;5073708;28;20052;-65
2022/07/12 00:32:12;;;;;;;2.78;1.58;;;;;;;16.82;71.88;101126.88;5073981;28;20085;-66
2022/07/12 00:34:41;;;;;;;2.00;1.50;;;;;;;16.78;72.14;101135.13;5066557;28;20048;-66
2022/07/12 00:37:08;;;;;;;1.97;1.50;;;;;;;16.76;72.05;101123.38;5068829;28;20056;-66
2022/07/12 00:39:35;;;;;;;2.25;1.60;;;;;;;16.76;72.01;101126.19;5073609;28;20080;-66
2022/07/12 00:42:03;;;;;;;3.60;1.42;;;;;;;16.76;72.03;101125.38;5073232;28;20457;-66
2022/07/12 00:44:33;;;;;;;2.55;1.63;;;;;;;16.73;72.06;101118.44;5071160;28;20063;-66
2022/07/12 00:47:01;;;;;;;2.30;1.52;;;;;;;16.70;72.17;101119.13;5073123;28;20493;-66
2022/07/12 00:49:28;;;;;;;2.25;1.65;;;;;;;16.69;72.12;101122.25;5073389;28;20056;-67
2022/07/12 00:51:57;;;;;;;3.08;1.85;;;;;;;16.69;72.08;101114.63;5073447;28;20052;-66
2022/07/12 00:54:25;;;;;;;2.60;2.13;;;;;;;16.62;72.12;101111.56;5070302;28;20052;-66
2022/07/12 00:56:52;;;;;;;2.13;1.50;;;;;;;16.56;72.23;101110.09;5072959;28;20044;-66
2022/07/12 00:59:20;;;;;;;3.42;1.83;;;;;;;16.51;72.35;101108.31;5073346;28;20055;-66
2022/07/12 01:01:47;;;;;;;3.25;1.83;;;;;;;16.48;72.35;101108.97;5072773;28;20057;-65
2022/07/12 01:04:18;;;;;;;2.90;1.63;;;;;;;16.46;72.30;101113.28;5068753;28;20064;-67
2022/07/12 01:06:45;;;;;;;2.90;1.70;;;;;;;16.33;72.25;101116.00;5070250;28;20053;-66
2022/07/12 01:09:14;;;;;;;2.15;1.63;;;;;;;16.30;72.08;101107.44;5072877;28;20060;-66
2022/07/12 01:11:42;;;;;;;3.07;1.50;;;;;;;16.27;71.96;101105.28;5072710;28;20053;-67
2022/07/12 01:14:11;;;;;;;2.38;1.70;;;;;;;16.20;72.14;101098.19;5070395;28;20083;-66
2022/07/12 01:16:39;;;;;;;2.30;1.50;;;;;;;16.11;72.25;101105.03;5071130;28;20056;-67
2022/07/12 01:19:07;;;;;;;1.90;1.55;;;;;;;16.04;72.32;101108.34;5072382;28;20052;-66
2022/07/12 01:21:38;;;;;;;2.90;1.75;;;;;;;15.97;72.89;101102.44;5073032;28;20056;-66
2022/07/12 01:24:09;;;;;;;2.75;2.03;;;;;;;15.89;73.01;101106.91;5072496;28;20063;-66
2022/07/12 01:26:36;;;;;;;2.75;1.60;;;;;;;15.86;73.19;101112.38;5068736;28;20044;-66
2022/07/12 01:29:06;;;;;;;2.47;1.52;;;;;;;15.85;73.29;101110.72;5072519;28;20056;-66
2022/07/12 01:31:34;;;;;;;2.60;1.88;;;;;;;15.80;73.20;101109.75;5072478;28;20060;-66
2022/07/12 01:34:02;;;;;;;3.00;1.83;;;;;;;15.79;73.10;101105.28;5072432;28;20053;-66
2022/07/12 01:36:30;;;;;;;4.10;1.63;;;;;;;15.76;73.40;101103.13;5058848;28;20052;-66
2022/07/12 01:38:57;;;;;;;4.03;2.15;;;;;;;15.72;73.29;101104.16;5052125;28;20052;-67
2022/07/12 01:41:26;;;;;;;3.13;2.22;;;;;;;15.69;73.52;101107.59;5052669;28;20052;-66
2022/07/12 01:43:54;;;;;;;2.22;1.73;;;;;;;15.68;73.31;101101.13;5052275;28;20057;-67
2022/07/12 01:46:21;;;;;;;2.92;1.73;;;;;;;15.66;73.06;101103.47;5061297;28;20417;-66
2022/07/12 01:48:48;;;;;;;2.47;1.70;;;;;;;15.60;73.04;101104.78;5072218;28;20059;-67
2022/07/12 01:51:16;;;;;;;3.35;1.80;;;;;;;15.56;73.30;101103.81;5072490;28;20052;-66
2022/07/12 01:53:43;;;;;;;2.60;2.00;;;;;;;15.51;73.36;101096.38;5072372;28;20060;-67
2022/07/12 01:56:11;;;;;;;2.65;1.80;;;;;;;15.48;73.36;101090.63;5068720;28;20067;-67
2022/07/12 01:58:40;;;;;;;2.80;1.80;;;;;;;15.46;73.38;101090.97;5072084;28;20416;-66
2022/07/12 02:01:09;;;;;;;2.63;1.73;;;;;;;15.42;73.39;101087.16;5072169;28;20056;-67
2022/07/12 02:03:36;;;;;;;2.90;1.80;;;;;;;15.40;73.20;101095.91;5068990;28;20053;-66
2022/07/12 02:06:04;;;;;;;3.35;1.88;;;;;;;15.39;73.26;101079.38;5066286;28;20049;-67
2022/07/12 02:08:31;;;;;;;3.92;2.35;;;;;;;15.35;73.23;101087.66;5072166;28;20059;-66
2022/07/12 02:10:59;;;;;;;3.00;2.10;;;;;;;15.31;73.37;101089.50;5072131;28;20066;-67
2022/07/12 02:13:26;;;;;;;2.45;2.00;;;;;;;15.28;73.65;101086.50;5072155;28;20059;-66
2022/07/12 02:15:55;;;;;;;2.90;2.08;;;;;;;15.24;73.58;101086.34;5066848;28;20162;-66
2022/07/12 02:18:22;;;;;;;2.33;1.90;;;;;;;15.20;73.64;101082.53;5070765;28;20053;-67
2022/07/12 02:20:49;;;;;;;2.83;1.83;;;;;;;15.14;73.79;101089.47;5072117;28;20547;-66
2022/07/12 02:23:16;;;;;;;2.72;2.08;;;;;;;15.11;73.77;101093.78;5071136;28;20056;-66
2022/07/12 02:25:44;;;;;;;2.10;1.80;;;;;;;15.11;73.87;101096.56;5067495;28;20159;-67
2022/07/12 02:28:11;;;;;;;3.80;1.60;;;;;;;15.10;74.04;101105.31;5071621;28;20433;-67
2022/07/12 02:30:38;;;;;;;3.00;1.90;;;;;;;15.05;74.23;101106.31;5071863;28;20063;-67
2022/07/12 02:33:07;;;;;;;2.08;1.73;;;;;;;15.01;74.01;101108.97;5071796;28;20168;-66
2022/07/12 02:35:34;;;;;;;2.33;2.08;;;;;;;14.96;73.94;101111.09;5067410;28;20053;-67
2022/07/12 02:38:01;;;;;;;2.38;1.73;;;;;;;14.95;73.55;101106.63;5071320;28;20047;-66
2022/07/12 02:43:14;;;;;;;3.58;1.92;;;;;;;14.91;73.26;101117.72;5077695;28;20068;-67
2022/07/12 02:45:41;;;;;;;4.03;2.15;;;;;;;14.85;73.39;101121.00;5069497;28;20051;-67
2022/07/12 02:48:12;;;;;;;3.53;1.80;;;;;;;14.73;73.78;101127.25;5071615;28;20049;-67
2022/07/12 02:50:39;;;;;;;2.78;1.75;;;;;;;14.75;73.60;101136.97;5071502;28;20052;-67
2022/07/12 02:53:07;;;;;;;3.72;1.80;;;;;;;14.71;73.90;101135.16;5071485;28;20491;-67
2022/07/12 02:55:37;;;;;;;2.90;2.00;;;;;;;14.68;73.72;101124.56;5069531;28;20053;-66
2022/07/12 02:58:05;;;;;;;2.53;1.73;;;;;;;14.67;73.39;101134.16;5060144;28;20539;-67
2022/07/12 03:00:34;;;;;;;2.53;1.80;;;;;;;14.63;73.42;101135.94;5071669;28;20049;-67
2022/07/12 03:03:01;;;;;;;2.40;1.90;;;;;;;14.60;73.26;101138.25;5070966;28;20055;-67
2022/07/12 03:05:30;;;;;;;4.03;1.92;;;;;;;14.56;73.79;101140.06;5070320;28;20425;-66
2022/07/12 03:07:57;;;;;;;2.92;1.98;;;;;;;14.52;73.87;101138.19;5068280;28;20044;-66
2022/07/12 03:10:24;;;;;;;4.25;2.10;;;;;;;14.43;74.34;101149.38;5071206;28;20049;-67
2022/07/12 03:12:52;;;;;;;8.85;2.08;;;;;;;14.47;74.46;101156.00;5069085;28;20504;-67
2022/07/12 03:15:19;;;;;;;5.07;2.20;;;;;;;14.46;74.50;101157.13;5071352;28;20405;-67
2022/07/12 03:17:46;;;;;;;3.17;2.13;;;;;;;14.47;74.47;101152.34;5071213;28;20469;-67
2022/07/12 03:20:14;;;;;;;3.65;2.28;;;;;;;14.47;74.28;101147.59;5071088;28;20049;-67
2022/07/12 03:22:46;;;;;;;3.63;1.90;;;;;;;14.50;73.77;101146.09;5069505;28;20052;-66
2022/07/12 03:25:13;;;;;;;3.13;1.73;;;;;;;14.49;73.74;101145.28;5067145;28;20052;-67
2022/07/12 03:27:40;;;;;;;4.00;2.03;;;;;;;14.43;74.00;101149.38;5071282;28;20053;-66
2022/07/12 03:30:09;;;;;;;2.83;2.10;;;;;;;14.37;74.23;101140.28;5070911;28;20049;-67
2022/07/12 03:32:36;;;;;;;3.00;2.13;;;;;;;14.36;74.26;101147.06;5071289;28;20076;-67
2022/07/12 03:35:05;;;;;;;4.03;2.42;;;;;;;14.35;74.72;101147.38;5068546;28;20492;-67
2022/07/12 03:37:43;;;;;;;5.25;2.40;;;;;;;14.33;74.84;101144.06;5074477;28;20048;-67
2022/07/12 03:40:12;;;;;;;4.45;2.40;;;;;;;14.34;74.78;101152.16;5074692;28;20063;-66
2022/07/12 03:42:39;;;;;;;3.92;2.70;;;;;;;14.35;74.78;101142.59;5074374;28;20057;-67
2022/07/12 03:45:07;;;;;;;4.55;2.65;;;;;;;14.35;74.76;101141.75;5072235;28;20048;-67
2022/07/12 03:47:36;;;;;;;4.43;2.72;;;;;;;14.37;74.94;101153.47;5074847;28;20052;-67
2022/07/12 03:50:04;;;;;;;5.43;2.30;;;;;;;14.43;75.37;101138.19;5074432;28;20366;-67
2022/07/12 03:52:32;;;;;;;4.57;2.20;;;;;;;14.46;75.36;101139.50;5074652;28;20409;-67
2022/07/12 03:55:02;;;;;;;4.35;2.50;;;;;;;14.47;75.35;101157.94;5070736;28;20486;-66
2022/07/12 03:57:30;;;;;;;4.57;2.63;;;;;;;14.53;74.90;101149.09;5074795;28;20052;-66
2022/07/12 03:59:58;;;;;;;4.90;3.00;;;;;;;14.58;74.90;101151.78;5072839;28;20059;-64
2022/07/12 04:02:25;;;;;;;5.13;2.75;;;;;;;14.65;74.44;101159.69;5074483;28;20409;-67
2022/07/12 04:04:53;;;;;;;4.60;3.17;;;;;;;14.70;74.13;101155.91;5072316;28;20060;-67
2022/07/12 04:07:21;;;;;;;3.05;2.40;;;;;;;14.73;73.77;101156.09;5074360;28;20393;-67
2022/07/12 04:09:49;;;;;;;4.05;2.25;;;;;;;14.80;73.68;101150.00;5074500;28;20060;-67
2022/07/12 04:12:17;;;;;;;2.65;1.90;;;;;;;14.88;73.16;101146.41;5074464;28;20409;-67
2022/07/12 04:14:45;;;;;;;3.20;2.00;;;;;;;14.95;73.09;101148.72;5070082;28;20059;-65
2022/07/12 04:17:12;;;;;;;3.67;1.92;;;;;;;15.00;72.73;101140.97;5070722;28;20049;-67
2022/07/12 04:19:39;;;;;;;2.72;1.98;;;;;;;15.06;73.11;101150.06;5074026;28;20056;-67
2022/07/12 04:22:06;;;;;;;5.88;2.20;;;;;;;15.15;72.92;101148.09;5073981;28;20056;-66
2022/07/12 04:24:34;;;;;;;3.28;1.95;;;;;;;15.22;72.72;101145.63;5074222;28;20405;-67
2022/07/12 04:27:01;;;;;;;3.97;1.90;;;;;;;15.30;72.69;101141.16;5062853;28;20048;-67
2022/07/12 04:29:30;;;;;;;4.03;2.33;;;;;;;15.37;72.44;101141.50;5073803;28;20056;-67
2022/07/12 04:31:57;;;;;;;4.43;2.20;;;;;;;15.40;72.29;101137.19;5058312;28;20068;-67
2022/07/12 04:34:24;;;;;;;3.67;1.85;;;;;;;15.43;72.39;101140.19;5061931;28;20048;-67
2022/07/12 04:36:51;;;;;;;3.83;2.22;;;;;;;15.47;72.03;101142.31;5071899;28;20048;-66
2022/07/12 04:39:19;;;;;;;3.03;2.15;;;;;;;15.53;72.32;101147.41;5069955;28;20055;-67
2022/07/12 04:41:47;;;;;;;3.13;2.70;;;;;;;15.55;72.04;101144.28;5071309;28;20082;-67
2022/07/12 04:44:14;;;;;;;4.82;4.32;;;;;;;15.62;71.93;101141.78;5067471;28;20053;-66
2022/07/12 04:46:43;;;;;;;6.32;4.53;;;;;;;15.70;71.83;101137.31;5070401;28;20508;-67
2022/07/12 04:49:10;;;;;;;6.40;5.20;;;;;;;15.74;71.66;101144.78;5067598;28;20080;-66
2022/07/12 04:51:37;;;;;;;5.20;3.10;;;;;;;15.79;71.60;101153.06;5072166;28;20060;-63
2022/07/12 04:54:05;;;;;;;5.78;3.00;;;;;;;15.40;73.04;101154.84;5066789;28;20049;-63
2022/07/12 04:56:32;;;;;;;4.72;3.28;;;;;;;15.30;73.75;101162.78;5070552;28;20063;-63
2022/07/12 04:58:59;;;;;;;6.88;3.05;;;;;;;15.11;75.00;101165.91;5071766;28;20499;-63
2022/07/12 05:01:26;;;;;;;5.85;3.25;;;;;;;15.01;76.22;101164.22;5071419;28;20487;-63
2022/07/12 05:03:55;;;;;;;5.88;3.65;;;;;;;15.08;76.32;101160.97;5071213;28;20499;-62
2022/07/12 05:06:23;;;;;;;6.63;3.80;;;;;;;15.11;76.65;101161.13;5066707;28;20060;-62
2022/07/12 05:08:51;;;;;;;5.28;3.33;;;;;;;15.33;76.34;101170.53;5068596;28;20044;-62
2022/07/12 05:11:19;;;;;;;4.95;3.80;;;;;;;15.51;75.78;101174.19;5071466;28;20052;-62
2022/07/12 05:13:46;;;;;;;6.22;4.00;;;;;;;15.67;75.17;101172.53;5069569;28;20048;-65
2022/07/12 05:16:14;;;;;;;4.88;3.75;;;;;;;15.88;74.57;101167.06;5062481;28;20061;-67
2022/07/12 05:18:41;;;;;;;5.95;4.03;;;;;;;16.04;74.08;101172.97;5069768;28;20045;-66
2022/07/12 05:21:10;;;;;;;6.53;4.55;;;;;;;16.16;73.71;101169.47;5073214;28;20051;-66
2022/07/12 05:23:37;;;;;;;6.72;4.22;;;;;;;16.26;73.36;101180.38;5073005;28;20051;-67
2022/07/12 05:26:05;;;;;;;6.40;3.90;;;;;;;16.32;73.09;101178.22;5070039;28;20053;-66
2022/07/12 05:28:32;;;;;;;6.50;4.13;;;;;;;16.44;72.61;101181.09;5061680;28;20481;-67
2022/07/12 05:30:59;;;;;;;4.57;3.65;;;;;;;16.54;72.40;101183.56;5072056;28;20052;-67
2022/07/12 05:33:27;;;;;;;5.10;3.70;;;;;;;16.61;72.27;101183.06;5068661;28;20516;-67
2022/07/12 05:35:54;;;;;;;4.68;3.88;;;;;;;16.69;72.19;101182.16;5059231;28;20055;-66
2022/07/12 05:38:23;;;;;;;4.80;3.47;;;;;;;16.75;72.08;101183.63;5055657;28;20408;-67
2022/07/12 05:40:51;;;;;;;7.17;3.67;;;;;;;16.79;72.05;101181.78;5052768;28;20064;-67
2022/07/12 05:43:18;;;;;;;6.05;3.88;;;;;;;16.89;71.65;101174.16;5057546;28;20059;-67
2022/07/12 05:45:46;;;;;;;5.78;4.20;;;;;;;16.94;71.70;101171.13;5072634;28;20060;-67
2022/07/12 05:48:13;;;;;;;5.95;4.15;;;;;;;16.99;71.54;101171.78;5065055;28;20044;-67
2022/07/12 05:50:40;;;;;;;4.80;3.42;;;;;;;17.08;71.73;101170.88;5064972;28;20064;-67
2022/07/12 05:55:51;;;;;;;5.90;3.80;;;;;;;17.23;71.65;101173.09;5051525;28;20049;-67
2022/07/12 05:58:19;;;;;;;;;;;;;;;17.23;71.61;101173.91;5061492;28;20059;-67
2022/07/12 06:00:47;;;;;;;4.13;3.67;;;;;;;17.30;71.86;101175.34;5072409;28;19927;-66
2022/07/12 06:03:15;;;;;;;9.20;5.00;;;;;;;17.39;71.87;101176.94;5071795;28;20056;-67
2022/07/12 06:05:42;;;;;;;5.25;3.60;;;;;;;17.45;72.02;101177.56;5067629;28;20419;-67
2022/07/12 06:08:10;;;;;;;6.78;4.30;;;;;;;17.52;71.87;101175.00;5058407;28;20508;-67
2022/07/12 06:10:37;;;;;;;4.70;3.92;;;;;;;17.59;71.67;101171.63;5068801;28;20052;-66
2022/07/12 06:13:06;;;;;;;6.68;4.53;;;;;;;17.73;71.55;101174.16;5049759;28;20057;-67
2022/07/12 06:15:33;;;;;;;4.72;4.22;;;;;;;17.81;71.46;101179.72;5062454;28;20049;-67
2022/07/12 06:18:01;;;;;;;5.18;4.68;;;;;;;17.88;71.55;101181.19;5063628;28;20072;-66
2022/07/12 06:20:28;;;;;;;4.72;3.70;;;;;;;17.96;71.28;101180.28;5065575;28;20057;-66
2022/07/12 06:22:59;;;;;;;6.72;4.13;;;;;;;18.09;71.21;101183.94;5066228;28;20484;-66
2022/07/12 06:25:27;;;;;;;4.75;3.63;;;;;;;18.12;71.22;101180.41;5057446;28;20698;-66
2022/07/12 06:27:54;;;;;;;7.35;4.30;;;;;;;18.16;71.37;101184.19;5057016;28;20052;-66
2022/07/12 06:30:23;;;;;;;7.85;4.60;;;;;;;18.23;71.24;101184.47;5063107;28;20052;-66
2022/07/12 06:32:51;;;;;;;7.57;4.70;;;;;;;18.29;71.30;101187.84;5059731;28;20115;-67
2022/07/12 06:35:19;;;;;;;4.63;4.15;;;;;;;18.39;71.29;101188.22;5063040;28;20063;-67
2022/07/12 06:37:46;;;;;;;5.72;4.70;;;;;;;18.52;71.14;101186.28;5058147;28;20386;-67
2022/07/12 06:40:16;;;;;;;6.10;4.45;;;;;;;18.63;70.74;101181.81;5059799;28;20049;-66
2022/07/12 06:42:44;;;;;;;5.25;4.30;;;;;;;18.75;70.40;101171.69;5063200;28;20056;-66
2022/07/12 06:45:12;;;;;;;4.63;4.00;;;;;;;18.86;70.29;101181.38;5063447;28;20071;-67
2022/07/12 06:47:41;;;;;;;5.97;3.58;;;;;;;18.97;70.38;101182.53;5054744;28;20040;-66
2022/07/12 06:50:09;;;;;;;4.30;3.88;;;;;;;19.06;70.07;101185.22;5061519;28;20056;-65
2022/07/12 06:52:36;;;;;;;5.30;3.45;;;;;;;19.15;70.12;101183.09;5062207;28;20048;-66
2022/07/12 06:55:04;;;;;;;6.88;4.00;;;;;;;19.30;70.29;101181.53;5060609;28;20060;-66
2022/07/12 06:57:33;;;;;;;5.38;4.10;;;;;;;19.41;70.13;101188.31;5061274;28;20051;-65
2022/07/12 07:00:00;;;;;;;6.20;3.65;;;;;;;19.60;69.72;101184.03;5063808;28;20045;-66
2022/07/12 07:02:28;;;;;;;3.75;3.35;;;;;;;19.76;69.37;101182.13;5062423;28;20055;-66
2022/07/12 07:04:57;;;;;;;3.60;2.97;;;;;;;19.92;69.35;101192.66;5061356;28;20067;-66
2022/07/12 07:07:24;;;;;;;4.53;3.40;;;;;;;20.04;69.12;101209.56;5063321;28;20048;-66
2022/07/12 07:09:51;;;;;;;4.18;3.17;;;;;;;20.04;69.10;101210.38;5062566;28;20052;-65
2022/07/12 07:12:18;;;;;;;3.72;3.33;;;;;;;20.19;68.77;101205.94;5063853;28;20408;-66
2022/07/12 07:14:46;;;;;;;4.15;3.25;;;;;;;20.39;68.52;101208.88;5063901;28;20052;-66
2022/07/12 07:17:16;;;;;;;12.82;2.88;;;;;;;20.53;68.38;101217.75;5063227;28;20060;-66
2022/07/12 07:19:43;;;;;;;6.28;2.50;;;;;;;20.64;67.78;101221.72;5060960;28;20051;-66
2022/07/12 07:22:12;;;;;;;4.53;2.92;;;;;;;20.78;67.48;101220.44;5061840;28;20059;-66
2022/07/12 07:24:40;;;;;;;4.78;2.63;;;;;;;20.88;66.73;101219.88;5066399;28;20052;-67
2022/07/12 07:27:07;;;;;;;3.63;2.65;;;;;;;21.02;66.00;101223.06;5065225;28;20056;-66
2022/07/12 07:32:20;;;;;;;3.35;2.13;;;;;;;21.27;64.01;101223.66;5064776;28;20068;-66
2022/07/12 07:34:47;;;;;;;3.47;2.10;;;;;;;21.39;63.52;101222.69;5061312;28;20048;-66
2022/07/12 07:37:16;;;;;;;3.47;2.28;;;;;;;21.49;63.92;101221.34;5065794;28;20056;-66
2022/07/12 07:39:43;;;;;;;4.63;3.17;;;;;;;21.58;63.20;101221.13;5059443;28;20465;-62
2022/07/12 07:42:11;;;;;;;5.28;3.42;;;;;;;21.64;62.28;101222.47;5065023;28;20049;-65
2022/07/12 07:44:38;;;;;;;3.92;3.00;;;;;;;21.73;61.77;101214.53;5063398;28;20055;-65
2022/07/12 07:47:05;;;;;;;3.58;2.72;;;;;;;21.85;61.51;101214.41;5066430;28;20060;-63
2022/07/12 07:49:33;;;;;;;3.47;2.95;;;;;;;21.75;61.02;101208.50;5058763;28;20067;-66
2022/07/12 07:52:01;;;;;;;4.93;2.92;;;;;;;21.69;61.22;101200.31;5062297;28;20453;-65
2022/07/12 07:54:29;;;;;;;3.47;2.60;;;;;;;22.06;60.34;101191.31;5065239;28;20386;-65
2022/07/12 07:56:56;;;;;;;3.08;2.53;;;;;;;22.95;58.29;101187.59;5066616;28;20052;-65
2022/07/12 07:59:24;;;;;;;4.35;2.28;;;;;;;24.16;54.63;101193.31;5066387;28;20056;-65
2022/07/12 08:01:53;;;;;;;3.72;2.95;;;;;;;25.20;51.60;101186.53;5062486;28;20088;-66
2022/07/12 08:04:21;;;;;;;2.63;1.88;;;;;;;26.29;49.24;101186.59;5064093;28;20056;-65
2022/07/12 08:06:50;;;;;;;3.78;2.47;;;;;;;27.19;46.60;101191.47;5062439;28;20079;-65
2022/07/12 08:09:17;;;;;;;4.20;2.30;;;;;;;28.10;43.96;101197.31;5065935;28;20056;-66
2022/07/12 08:11:46;;;;;;;2.30;1.90;;;;;;;28.91;42.37;101191.41;5061026;28;20490;-66
2022/07/12 08:14:13;;;;;;;2.83;1.90;;;;;;;29.87;40.45;101194.47;5066096;28;20401;-65
2022/07/12 08:16:40;;;;;;;3.92;2.45;;;;;;;30.68;38.76;101190.00;5061630;28;20052;-65
2022/07/12 08:19:08;;;;;;;2.38;1.98;;;;;;;31.57;36.85;101183.91;5061272;28;20055;-66
2022/07/12 08:21:35;;;;;;;2.97;2.10;;;;;;;32.36;34.17;101189.56;5060087;28;20060;-65
2022/07/12 08:24:02;;;;;;;3.08;1.98;;;;;;;33.36;32.84;101191.94;5063963;28;20056;-65
2022/07/12 08:26:30;;;;;;;3.08;1.80;;;;;;;34.01;31.07;101183.47;5055385;28;20572;-63
2022/07/12 08:28:58;;;;;;;2.53;1.80;;;;;;;34.93;30.65;101188.31;5064401;28;20052;-66
2022/07/12 08:31:26;;;;;;;;;;;;;;;35.57;29.80;101179.41;5061972;28;20067;-65
2022/07/12 08:33:53;;;;;;;3.53;1.83;;;;;;;35.93;29.18;101171.41;5060877;28;19934;-65
2022/07/12 08:36:20;;;;;;;2.42;1.60;;;;;;;37.02;26.42;101181.00;5065777;28;20060;-66
2022/07/12 08:38:47;;;;;;;3.22;1.60;;;;;;;36.19;27.27;101177.88;5065025;28;20055;-65
2022/07/12 08:41:15;;;;;;;3.17;1.58;;;;;;;37.32;26.28;101179.28;5062290;28;20051;-65
2022/07/12 08:43:43;;;;;;;2.15;1.45;;;;;;;37.89;25.13;101178.72;5063166;28;20059;-66
2022/07/12 08:46:14;;;;;;;1.95;1.42;;;;;;;37.82;25.14;101184.91;5061609;28;20057;-66
2022/07/12 08:48:43;;;;;;;3.10;1.85;;;;;;;37.09;25.68;101174.09;5062996;28;20049;-66
2022/07/12 08:51:12;;;;;;;2.63;1.63;;;;;;;37.23;25.38;101173.47;5063918;28;20492;-65
2022/07/12 08:53:40;;;;;;;2.28;1.50;;;;;;;38.40;24.55;101164.66;5066282;28;20060;-65
2022/07/12 08:56:08;;;;;;;;;;;;;;;39.26;23.48;101163.94;5061859;28;20108;-66
2022/07/12 08:58:35;;;;;;;2.55;1.80;;;;;;;39.90;22.56;101165.44;5059861;28;20379;-65
2022/07/12 09:01:02;;;;;;;2.70;1.37;;;;;;;40.02;22.99;101162.72;5061736;28;20052;-65
2022/07/12 09:03:34;;;;;;;1.67;1.33;;;;;;;40.91;21.35;101166.22;5061864;28;20059;-65
2022/07/12 09:06:06;;;;;;;3.28;1.30;;;;;;;41.29;21.06;101167.22;5064212;28;20059;-70
2022/07/12 09:08:33;;;;;;;2.38;1.17;;;;;;;42.45;19.40;101166.47;5064185;28;20056;-64
2022/07/12 09:11:02;;;;;;;;;;;;;;;42.81;19.10;101169.84;5065100;28;20063;-62
2022/07/12 09:13:48;;;;;;;2.55;1.27;;;;;;;43.92;18.33;101156.06;5060779;28;19927;-64
2022/07/12 09:16:17;;;;;;;2.00;1.43;;;;;;;44.59;18.35;101169.91;5061783;28;20527;-63
2022/07/12 09:18:46;;;;;;;2.22;1.50;;;;;;;45.48;16.61;101170.84;5060682;28;20721;-63
2022/07/12 09:21:23;;;;;;;2.33;1.40;;;;;;;45.97;16.53;101162.22;5059496;28;20048;-63
2022/07/12 09:23:56;;;;;;;1.83;1.40;;;;;;;46.01;16.24;101156.03;5055384;28;20099;-62
2022/07/12 09:26:23;;;;;;;3.08;1.60;;;;;;;46.05;15.83;101161.63;5065621;28;20059;-63
2022/07/12 09:28:52;;;;;;;2.42;1.40;;;;;;;46.52;14.93;101162.22;5063690;28;20053;-62
2022/07/12 09:31:20;;;;;;;2.00;1.60;;;;;;;47.04;15.13;101169.09;5058043;28;20064;-64
2022/07/12 09:36:59;;;;;;;3.78;1.40;;;;;;;47.41;14.00;101160.84;5071689;28;20072;-64
2022/07/12 09:39:26;;;;;;;;;;;;;;;46.61;14.23;101160.25;5064514;28;20060;-63
2022/07/12 09:41:56;;;;;;;1.77;1.20;;;;;;;47.12;14.22;101152.38;5056267;28;19928;-63
2022/07/12 09:44:25;;;;;;;1.45;1.10;;;;;;;47.89;13.89;101156.88;5062267;28;20057;-63
2022/07/12 09:46:53;;;;;;;1.50;1.20;;;;;;;48.57;13.51;101144.59;5063775;28;20060;-63
2022/07/12 09:49:22;;;;;;;2.53;1.40;;;;;;;49.33;12.53;101149.97;5058052;28;20060;-63
2022/07/12 09:51:53;;;;;;;1.83;1.30;;;;;;;49.60;12.19;101149.88;5060327;28;20504;-63
2022/07/12 09:54:26;;;;;;;2.03;1.30;;;;;;;49.49;11.95;101148.00;5062332;28;20419;-63
2022/07/12 09:56:55;;;;;;;5.45;1.50;;;;;;;49.60;12.53;101149.09;5064177;28;20056;-62
2022/07/12 09:59:25;;;;;;;2.22;1.25;;;;;;;50.05;11.84;101157.63;5063890;28;20060;-63
2022/07/12 10:01:55;;;;;;;1.67;1.27;;;;;;;50.62;12.11;101148.00;5061736;28;20075;-63
2022/07/12 10:04:24;;;;;;;2.13;1.60;;;;;;;50.20;12.20;101151.06;5061322;28;20060;-63
2022/07/12 10:06:52;;;;;;;2.67;1.27;;;;;;;50.05;11.71;101150.94;5063451;28;20481;-63
2022/07/12 10:09:19;;;;;;;1.67;1.30;;;;;;;49.89;12.14;101144.06;5059908;28;20389;-63
2022/07/12 10:11:47;;;;;;;3.38;1.30;;;;;;;49.74;12.26;101142.53;5058378;28;20052;-62
2022/07/12 10:14:16;;;;;;;2.55;1.50;;;;;;;50.39;12.36;101147.06;5059504;28;20409;-63
2022/07/12 10:16:45;;;;;;;2.40;1.58;;;;;;;50.96;11.26;101141.88;5061223;28;20517;-62
2022/07/12 10:19:27;;;;;;;2.25;1.75;;;;;;;51.17;11.03;101147.69;5055478;28;20059;-62
2022/07/12 10:21:58;;;;;;;1.58;1.45;;;;;;;50.82;11.13;101149.31;5059483;28;20048;-62
2022/07/12 10:24:47;;;;;;;2.03;1.60;;;;;;;50.91;11.93;101151.75;5056774;28;20045;-62
2022/07/12 10:27:34;;;;;;;2.63;1.50;;;;;;;51.26;10.73;101155.25;5060935;28;20067;-62
2022/07/12 10:30:17;;;;;;;;;;;;;;;51.33;10.71;101142.63;5058336;28;20052;-62
2022/07/12 10:32:45;;;;;;;1.95;1.40;;;;;;;51.76;10.80;101152.00;5061921;28;19920;-62
2022/07/12 10:35:19;;;;;;;1.90;1.10;;;;;;;51.64;11.00;101142.69;5058579;28;20761;-62
2022/07/12 10:38:14;;;;;;;1.52;1.33;;;;;;;51.45;11.01;101140.06;5067191;28;20101;-62
2022/07/12 10:40:44;;;;;;;1.92;1.40;;;;;;;51.78;10.55;101142.50;5065863;28;20511;-62
2022/07/12 10:43:21;;;;;;;2.22;1.58;;;;;;;51.50;10.24;101139.13;5065426;28;20052;-62
2022/07/12 10:45:49;;;;;;;1.67;1.40;;;;;;;51.46;10.13;101135.75;5065447;28;20059;-62
2022/07/12 10:48:22;;;;;;;1.60;1.20;;;;;;;52.25;10.15;101132.22;5069284;28;20416;-62
2022/07/12 10:50:57;;;;;;;2.33;1.33;;;;;;;51.76;10.55;101134.19;5067169;28;20052;-62
2022/07/12 10:53:26;;;;;;;2.95;1.10;;;;;;;51.07;10.28;101125.88;5065626;28;20049;-62
2022/07/12 10:56:10;;;;;;;1.40;1.10;;;;;;;50.79;10.74;101123.00;5060264;28;20048;-62
2022/07/12 10:58:41;;;;;;;2.67;1.45;;;;;;;50.77;11.03;101117.66;5066476;28;20045;-62
2022/07/12 11:01:10;;;;;;;1.95;1.10;;;;;;;49.76;10.76;101118.28;5060707;28;20056;-62
2022/07/12 11:03:42;;;;;;;2.72;1.30;;;;;;;49.71;11.37;101119.22;5065793;28;20056;-62
2022/07/12 11:06:16;;;;;;;2.00;1.30;;;;;;;50.09;10.97;101118.78;5063940;28;20049;-62
2022/07/12 11:08:55;;;;;;;2.08;1.20;;;;;;;49.06;11.26;101113.75;5069685;28;20053;-62
2022/07/12 11:11:24;;;;;;;2.35;1.40;;;;;;;49.14;11.20;101117.59;5065070;28;20056;-62
2022/07/12 11:13:51;;;;;;;1.90;1.15;;;;;;;49.29;11.22;101113.19;5068781;28;20048;-62
2022/07/12 11:16:19;;;;;;;1.38;1.10;;;;;;;49.16;12.04;101114.88;5059415;28;20064;-62
2022/07/12 11:18:47;;;;;;;2.55;1.30;;;;;;;49.11;11.60;101106.13;5062262;28;20075;-62
2022/07/12 11:21:22;;;;;;;1.83;1.38;;;;;;;49.25;11.58;101106.84;5058371;28;20064;-62
2022/07/12 11:23:51;;;;;;;1.50;1.20;;;;;;;49.26;12.16;101105.50;5059946;28;20052;-62
2022/07/12 11:26:19;;;;;;;2.13;1.42;;;;;;;49.54;11.74;101102.66;5054872;28;20535;-61
2022/07/12 11:28:48;;;;;;;1.40;1.20;;;;;;;49.74;11.73;101107.00;5051559;28;20053;-61
2022/07/12 11:31:17;;;;;;;1.67;1.30;;;;;;;49.64;11.30;101099.19;5052603;28;20048;-62
2022/07/12 11:33:46;;;;;;;1.90;1.20;;;;;;;49.79;11.52;101102.31;5053754;28;20049;-61
2022/07/12 11:36:14;;;;;;;2.75;1.20;;;;;;;49.86;11.36;101104.56;5057918;28;20057;-62
2022/07/12 11:38:44;;;;;;;1.58;1.17;;;;;;;50.06;11.10;101093.25;5056466;28;20061;-61
2022/07/12 11:41:14;;;;;;;1.40;1.23;;;;;;;49.82;11.01;101098.19;5058422;28;20408;-61
2022/07/12 11:43:42;;;;;;;1.75;1.20;;;;;;;49.79;11.48;101090.44;5055652;28;20049;-61